createdAt,value
2019-03-27T00:02:45.730Z,9.60
2019-03-27T00:05:35.753Z,9.80
2019-03-27T00:08:26.250Z,9.77
2019-03-27T00:11:16.442Z,10.70
2019-03-27T00:14:06.107Z,10.70
2019-03-27T00:16:55.743Z,11.67
2019-03-27T00:19:45.551Z,10.57
2019-03-27T00:22:35.194Z,11.70
2019-03-27T00:25:24.817Z,11.80
2019-03-27T00:27:55.413Z,10.70
2019-03-27T00:30:44.439Z,11.47
2019-03-27T00:33:33.904Z,10.50
2019-03-27T00:36:23.565Z,11.23
2019-03-27T00:39:12.733Z,10.80
2019-03-27T00:42:02.253Z,12.00
2019-03-27T00:44:58.488Z,12.30
2019-03-27T00:47:48.086Z,10.63
2019-03-27T00:50:37.632Z,12.37
2019-03-27T00:53:26.954Z,11.00
2019-03-27T00:56:16.470Z,11.03
2019-03-27T00:59:06.418Z,11.37
2019-03-27T01:01:55.998Z,11.90
2019-03-27T01:04:45.221Z,11.03
2019-03-27T01:07:35.255Z,10.30
2019-03-27T01:10:24.708Z,11.07
2019-03-27T01:13:13.829Z,10.77
2019-03-27T01:16:03.200Z,11.10
2019-03-27T01:18:53.244Z,11.20
2019-03-27T01:21:24.082Z,11.47
2019-03-27T01:24:13.625Z,12.07
2019-03-27T01:27:03.453Z,12.50
2019-03-27T01:29:52.860Z,11.57
2019-03-27T01:32:23.470Z,11.83
2019-03-27T01:35:13.111Z,11.80
2019-03-27T01:38:02.056Z,12.40
2019-03-27T01:40:51.638Z,12.57
2019-03-27T01:43:41.073Z,13.93
2019-03-27T01:46:30.588Z,14.07
2019-03-27T01:49:19.845Z,13.63
2019-03-27T01:52:09.049Z,13.60
2019-03-27T01:54:58.502Z,15.80
2019-03-27T01:57:32.956Z,14.27
2019-03-27T02:00:22.935Z,14.77
2019-03-27T02:03:12.721Z,15.70
2019-03-27T02:06:01.906Z,14.60
2019-03-27T02:08:51.724Z,14.70
2019-03-27T02:11:40.630Z,15.33
2019-03-27T02:14:29.816Z,15.70
2019-03-27T02:17:19.555Z,16.50
2019-03-27T02:20:09.691Z,15.33
2019-03-27T02:22:59.016Z,15.73
2019-03-27T02:25:48.572Z,14.10
2019-03-27T02:28:38.542Z,16.63
2019-03-27T02:31:28.540Z,17.43
2019-03-27T02:34:18.483Z,16.60
2019-03-27T02:37:08.650Z,17.37
2019-03-27T02:39:58.350Z,17.50
2019-03-27T02:42:48.062Z,17.80
2019-03-27T02:45:18.895Z,16.47
2019-03-27T02:48:08.048Z,16.93
2019-03-27T02:50:57.252Z,18.70
2019-03-27T02:53:46.807Z,17.37
2019-03-27T02:56:17.766Z,18.17
2019-03-27T02:59:06.955Z,18.10
2019-03-27T03:01:56.222Z,18.50
2019-03-27T03:04:45.080Z,17.77
2019-03-27T03:07:18.575Z,17.40
2019-03-27T03:10:08.822Z,20.00
2019-03-27T03:12:58.261Z,19.50
2019-03-27T03:15:48.002Z,18.47
2019-03-27T03:18:37.204Z,19.33
2019-03-27T03:21:27.088Z,19.10
2019-03-27T03:24:16.940Z,18.80
2019-03-27T03:27:06.900Z,19.60
2019-03-27T03:29:56.416Z,18.47
2019-03-27T03:32:45.458Z,18.87
2019-03-27T03:35:35.040Z,19.17
2019-03-27T03:38:24.717Z,20.33
2019-03-27T03:41:14.492Z,20.47
2019-03-27T03:44:04.131Z,19.03
2019-03-27T03:46:59.884Z,20.83
2019-03-27T03:49:44.904Z,20.20
2019-03-27T03:52:34.805Z,20.83
2019-03-27T03:55:25.097Z,20.30
2019-03-27T03:58:16.298Z,21.43
2019-03-27T04:01:06.717Z,20.47
2019-03-27T04:03:57.663Z,22.00
2019-03-27T04:06:47.644Z,21.30
2019-03-27T04:09:37.295Z,21.47
2019-03-27T04:12:08.148Z,21.70
2019-03-27T04:14:57.823Z,21.43
2019-03-27T04:17:47.118Z,21.87
2019-03-27T04:20:36.902Z,21.10
2019-03-27T04:23:26.808Z,22.90
2019-03-27T04:26:16.360Z,22.30
2019-03-27T04:29:06.406Z,22.30
2019-03-27T04:31:55.736Z,21.97
2019-03-27T04:34:47.132Z,21.03
2019-03-27T04:37:35.672Z,22.30
2019-03-27T04:40:26.047Z,22.30
2019-03-27T04:43:15.519Z,23.93
2019-03-27T04:46:04.296Z,25.00
2019-03-27T04:48:53.565Z,23.43
2019-03-27T04:51:43.405Z,22.80
2019-03-27T04:54:32.735Z,22.93
2019-03-27T04:57:22.114Z,21.90
2019-03-27T05:00:10.729Z,22.30
2019-03-27T05:02:59.250Z,23.90
2019-03-27T05:05:48.026Z,24.40
2019-03-27T05:08:35.934Z,23.27
2019-03-27T05:11:24.479Z,24.10
2019-03-27T05:14:12.801Z,24.47
2019-03-27T05:17:01.081Z,23.27
2019-03-27T05:19:50.303Z,24.77
2019-03-27T05:22:38.504Z,24.93
2019-03-27T05:25:26.967Z,24.40
2019-03-27T05:28:15.288Z,25.77
2019-03-27T05:31:03.906Z,26.30
2019-03-27T05:33:52.226Z,26.40
2019-03-27T05:36:40.192Z,25.80
2019-03-27T05:39:10.124Z,26.23
2019-03-27T05:41:39.656Z,25.30
2019-03-27T05:44:09.146Z,27.50
2019-03-27T05:46:38.908Z,25.97
2019-03-27T05:49:08.609Z,26.13
2019-03-27T05:51:38.473Z,25.97
2019-03-27T05:54:08.362Z,26.40
2019-03-27T05:56:38.306Z,23.50
2019-03-27T05:59:07.986Z,24.60
2019-03-27T06:01:38.840Z,26.57
2019-03-27T06:04:09.519Z,26.20
2019-03-27T06:06:59.265Z,25.70
2019-03-27T06:09:29.740Z,25.43
2019-03-27T06:12:00.619Z,27.47
2019-03-27T06:14:31.255Z,24.67
2019-03-27T06:17:01.912Z,25.40
2019-03-27T06:19:51.713Z,24.50
2019-03-27T06:22:40.942Z,25.33
2019-03-27T06:25:30.658Z,26.97
2019-03-27T06:28:19.832Z,25.10
2019-03-27T06:31:09.230Z,23.90
2019-03-27T06:33:40.051Z,25.37
2019-03-27T06:36:10.928Z,27.10
2019-03-27T06:38:41.594Z,24.30
2019-03-27T06:41:12.453Z,26.67
2019-03-27T06:43:43.364Z,26.60
2019-03-27T06:46:32.148Z,25.97
2019-03-27T06:49:21.610Z,27.10
2019-03-27T06:52:11.274Z,27.37
2019-03-27T06:55:00.943Z,27.30
2019-03-27T06:57:50.747Z,28.70
2019-03-27T07:00:39.854Z,29.33
2019-03-27T07:03:29.850Z,28.77
2019-03-27T07:06:19.534Z,28.50
2019-03-27T07:09:10.128Z,28.07
2019-03-27T07:11:59.900Z,30.60
2019-03-27T07:14:48.982Z,27.43
2019-03-27T07:17:38.294Z,29.17
2019-03-27T07:20:27.461Z,27.37
2019-03-27T07:22:59.077Z,25.93
2019-03-27T07:25:29.866Z,27.60
2019-03-27T07:28:00.564Z,30.07
2019-03-27T07:30:31.121Z,30.90
2019-03-27T07:33:01.849Z,29.20
2019-03-27T07:35:32.458Z,28.33
2019-03-27T07:38:05.237Z,28.43
2019-03-27T07:40:37.195Z,29.67
2019-03-27T07:43:08.362Z,28.20
2019-03-27T07:45:39.088Z,26.80
2019-03-27T07:48:10.239Z,28.07
2019-03-27T07:50:40.897Z,29.37
2019-03-27T07:53:12.578Z,30.30
2019-03-27T07:55:44.541Z,29.07
2019-03-27T07:58:16.486Z,30.13
2019-03-27T08:00:52.208Z,30.27
2019-03-27T08:03:28.077Z,30.87
2019-03-27T08:06:02.101Z,30.17
2019-03-27T08:08:36.161Z,31.40
2019-03-27T08:11:11.896Z,30.10
2019-03-27T08:13:45.681Z,29.27
2019-03-27T08:16:19.999Z,28.53
2019-03-27T08:19:07.403Z,28.57
2019-03-27T08:21:31.341Z,28.53
2019-03-27T08:24:02.676Z,29.93
2019-03-27T08:26:33.505Z,25.40
2019-03-27T08:29:04.488Z,25.23
2019-03-27T08:31:35.509Z,26.10
2019-03-27T08:34:12.895Z,25.10
2019-03-27T08:36:44.188Z,23.63
2019-03-27T08:45:15.414Z,24.37
2019-03-27T08:48:04.819Z,25.10
2019-03-27T08:50:54.754Z,17.13
2019-03-27T08:53:44.868Z,17.00
2019-03-27T08:56:34.393Z,18.53
2019-03-27T08:59:27.002Z,18.00
2019-03-27T09:02:18.172Z,17.80
2019-03-27T09:05:09.130Z,19.67
2019-03-27T09:21:54.444Z,20.67
2019-03-27T09:24:51.608Z,18.23
2019-03-27T09:27:42.277Z,18.20
2019-03-27T09:30:34.895Z,19.00
2019-03-27T09:33:24.977Z,16.70
2019-03-27T09:36:15.944Z,17.00
2019-03-27T09:39:07.626Z,13.80
2019-03-27T09:41:57.014Z,13.47
2019-03-27T09:44:47.586Z,14.57
2019-03-27T09:47:37.235Z,14.20
2019-03-27T09:50:29.949Z,14.17
2019-03-27T09:53:19.418Z,12.47
2019-03-27T09:56:18.927Z,13.90
2019-03-27T09:59:00.807Z,12.70
2019-03-27T10:01:50.295Z,11.93
2019-03-27T10:04:40.089Z,11.03
2019-03-27T10:07:31.047Z,10.47
2019-03-27T10:10:21.192Z,10.50
2019-03-27T10:13:11.041Z,9.40
2019-03-27T10:16:01.348Z,9.40
2019-03-27T10:18:51.200Z,10.50
2019-03-27T10:21:41.273Z,9.70
2019-03-27T10:24:31.533Z,10.20
2019-03-27T10:27:20.929Z,9.77
2019-03-27T10:30:10.961Z,9.80
2019-03-27T10:32:41.725Z,10.23
2019-03-27T10:35:31.734Z,8.70
2019-03-27T10:38:21.135Z,7.80
2019-03-27T10:41:10.422Z,7.90
2019-03-27T10:43:59.861Z,7.83
2019-03-27T10:46:49.535Z,8.27
2019-03-27T10:49:59.346Z,8.00
2019-03-27T10:52:48.872Z,6.90
2019-03-27T10:55:38.704Z,6.67
2019-03-27T10:58:28.039Z,6.63
2019-03-27T11:01:18.355Z,6.70
2019-03-27T11:04:09.320Z,5.73
2019-03-27T11:06:59.048Z,6.97
2019-03-27T11:09:48.860Z,7.43
2019-03-27T11:12:38.576Z,7.70
2019-03-27T11:15:28.444Z,8.37
2019-03-27T11:18:18.674Z,8.57
2019-03-27T11:21:08.160Z,7.77
2019-03-27T11:23:57.691Z,7.80
2019-03-27T11:26:47.060Z,7.40
2019-03-27T11:29:36.367Z,7.70
2019-03-27T11:32:07.059Z,7.67
2019-03-27T11:34:57.013Z,8.30
2019-03-27T11:37:46.485Z,7.50
2019-03-27T11:40:36.019Z,8.20
2019-03-27T11:43:25.913Z,7.60
2019-03-27T11:46:15.642Z,8.27
2019-03-27T11:49:04.647Z,7.83
2019-03-27T11:51:54.509Z,8.33
2019-03-27T11:54:43.751Z,7.43
2019-03-27T11:57:33.588Z,7.10
2019-03-27T12:00:23.737Z,5.70
2019-03-27T12:03:14.108Z,6.13
2019-03-27T12:06:02.867Z,6.20
2019-03-27T12:08:51.280Z,6.37
2019-03-27T12:11:39.825Z,6.27
2019-03-27T12:14:28.772Z,7.20
2019-03-27T12:17:17.803Z,7.50
2019-03-27T12:20:07.669Z,7.63
2019-03-27T12:22:57.901Z,7.33
2019-03-27T12:25:46.597Z,7.60
2019-03-27T12:28:34.930Z,8.10
2019-03-27T12:31:24.165Z,8.37
2019-03-27T12:34:13.340Z,8.23
2019-03-27T12:37:02.035Z,7.80
2019-03-27T12:39:50.586Z,6.90
2019-03-27T12:42:38.860Z,7.80
2019-03-27T12:45:27.528Z,7.83
2019-03-27T12:48:18.348Z,8.80
2019-03-27T12:51:12.931Z,8.27
2019-03-27T12:53:59.232Z,8.33
2019-03-27T12:56:47.680Z,8.00
2019-03-27T12:59:36.045Z,7.90
2019-03-27T13:02:24.751Z,7.83
2019-03-27T13:05:13.486Z,8.23
2019-03-27T13:08:02.084Z,7.63
2019-03-27T13:10:50.712Z,6.70
2019-03-27T13:13:38.995Z,7.40
2019-03-27T13:16:27.633Z,8.03
2019-03-27T13:19:16.305Z,7.20
2019-03-27T13:22:05.125Z,7.63
2019-03-27T13:24:52.878Z,7.70
2019-03-27T13:27:41.026Z,7.03
2019-03-27T13:30:29.261Z,7.43
2019-03-27T13:33:18.466Z,7.90
2019-03-27T13:36:06.964Z,7.80
2019-03-27T13:38:55.419Z,7.60
2019-03-27T13:41:44.233Z,7.23
2019-03-27T13:44:37.411Z,7.67
2019-03-27T13:47:22.500Z,8.30
2019-03-27T13:50:13.137Z,8.70
2019-03-27T13:53:02.005Z,7.53
2019-03-27T13:55:50.891Z,8.77
2019-03-27T13:58:39.554Z,7.93
2019-03-27T14:01:27.978Z,8.47
2019-03-27T14:04:16.352Z,8.90
2019-03-27T14:07:04.566Z,8.30
2019-03-27T14:09:53.157Z,9.77
2019-03-27T14:12:41.376Z,9.23
2019-03-27T14:15:30.019Z,8.13
2019-03-27T14:18:18.419Z,7.80
2019-03-27T14:21:10.278Z,9.20
2019-03-27T14:24:00.203Z,8.17
2019-03-27T14:26:49.117Z,7.73
2019-03-27T14:29:38.042Z,7.63
2019-03-27T14:32:26.884Z,6.30
2019-03-27T14:35:11.597Z,6.93
2019-03-27T14:37:41.516Z,7.33
2019-03-27T14:40:11.273Z,6.57
2019-03-27T14:42:59.857Z,6.20
2019-03-27T14:45:47.980Z,7.17
2019-03-27T14:48:36.653Z,6.57
2019-03-27T14:51:25.042Z,6.10
2019-03-27T14:54:13.184Z,6.50
2019-03-27T14:57:01.322Z,7.10
2019-03-27T14:59:31.409Z,6.90
2019-03-27T15:02:01.207Z,6.67
2019-03-27T15:04:30.928Z,6.40
2019-03-27T15:07:00.681Z,6.57
2019-03-27T15:09:30.537Z,6.47
2019-03-27T15:12:00.572Z,6.20
2019-03-27T15:14:31.127Z,6.80
2019-03-27T15:17:00.763Z,6.73
2019-03-27T15:19:30.733Z,6.80
2019-03-27T15:22:00.724Z,7.17
2019-03-27T15:24:30.511Z,6.63
2019-03-27T15:27:00.367Z,7.00
2019-03-27T15:29:48.566Z,6.33
2019-03-27T15:32:37.397Z,6.73
2019-03-27T15:35:25.856Z,7.77
2019-03-27T15:38:14.265Z,7.90
2019-03-27T15:40:45.112Z,8.50
2019-03-27T15:43:14.724Z,7.50
2019-03-27T15:46:03.367Z,8.37
2019-03-27T15:48:51.251Z,8.57
2019-03-27T15:51:39.757Z,7.50
2019-03-27T15:54:28.508Z,6.80
2019-03-27T15:57:17.170Z,7.80
2019-03-27T16:00:05.930Z,7.60
2019-03-27T16:02:54.831Z,7.17
2019-03-27T16:05:43.252Z,7.60
2019-03-27T16:08:15.978Z,8.23
2019-03-27T16:11:05.622Z,7.10
2019-03-27T16:13:53.943Z,7.37
2019-03-27T16:16:57.680Z,7.30
2019-03-27T16:19:32.420Z,7.13
2019-03-27T16:22:21.267Z,7.60
2019-03-27T16:25:10.198Z,7.50
2019-03-27T16:27:59.087Z,7.73
2019-03-27T16:30:47.517Z,7.30
2019-03-27T16:33:36.253Z,8.30
2019-03-27T16:36:24.570Z,7.80
2019-03-27T16:39:13.398Z,7.10
2019-03-27T16:42:01.945Z,7.00
2019-03-27T16:44:50.340Z,7.67
2019-03-27T16:47:39.137Z,7.13
2019-03-27T16:50:27.455Z,8.20
2019-03-27T16:53:16.258Z,8.20
2019-03-27T16:56:04.859Z,7.93
2019-03-27T16:58:53.453Z,7.60
2019-03-27T17:01:42.504Z,8.50
2019-03-27T17:04:30.999Z,8.03
2019-03-27T17:07:20.378Z,8.30
2019-03-27T17:10:09.061Z,8.40
2019-03-27T17:12:57.690Z,8.23
2019-03-27T17:15:47.838Z,8.60
2019-03-27T17:18:36.616Z,8.30
2019-03-27T17:21:25.880Z,8.13
2019-03-27T17:24:14.588Z,9.60
2019-03-27T17:27:02.800Z,9.17
2019-03-27T17:29:50.952Z,8.73
2019-03-27T17:32:38.982Z,9.30
2019-03-27T17:35:27.904Z,9.20
2019-03-27T17:38:16.391Z,9.13
2019-03-27T17:41:05.289Z,8.47
2019-03-27T17:43:54.131Z,9.30
2019-03-27T17:46:42.802Z,9.47
2019-03-27T17:49:31.379Z,9.70
2019-03-27T17:52:20.407Z,9.60
2019-03-27T17:55:09.330Z,9.10
2019-03-27T17:57:58.435Z,9.70
2019-03-27T18:00:49.586Z,10.20
2019-03-27T18:03:38.337Z,9.60
2019-03-27T18:06:27.387Z,9.57
2019-03-27T18:09:16.278Z,9.70
2019-03-27T18:12:05.006Z,9.77
2019-03-27T18:14:34.671Z,9.00
2019-03-27T18:17:23.081Z,9.50
2019-03-27T18:20:12.317Z,9.10
2019-03-27T18:22:51.569Z,9.77
2019-03-27T18:25:39.580Z,10.13
2019-03-27T18:28:27.927Z,9.70
2019-03-27T18:31:16.758Z,10.50
2019-03-27T18:34:05.305Z,10.07
2019-03-27T18:36:53.784Z,10.03
2019-03-27T18:39:42.294Z,9.67
2019-03-27T18:42:30.522Z,10.33
2019-03-27T18:45:18.772Z,10.30
2019-03-27T18:48:08.058Z,10.00
2019-03-27T18:50:56.621Z,11.60
2019-03-27T18:53:58.525Z,9.80
2019-03-27T18:56:35.715Z,10.80
2019-03-27T18:59:24.805Z,11.97
2019-03-27T19:02:14.027Z,11.90
2019-03-27T19:05:02.860Z,12.13
2019-03-27T19:07:50.971Z,11.00
2019-03-27T19:10:39.114Z,12.03
2019-03-27T19:13:27.396Z,11.77
2019-03-27T19:16:16.097Z,12.07
2019-03-27T19:19:04.792Z,11.87
2019-03-27T19:21:53.304Z,10.67
2019-03-27T19:24:22.866Z,12.10
2019-03-27T19:27:11.343Z,11.07
2019-03-27T19:30:00.384Z,11.67
2019-03-27T19:32:48.770Z,11.53
2019-03-27T19:35:37.450Z,12.70
2019-03-27T19:38:26.672Z,12.10
2019-03-27T19:41:15.291Z,11.63
2019-03-27T19:44:03.640Z,11.63
2019-03-27T19:46:52.110Z,11.80
2019-03-27T19:49:40.819Z,11.47
2019-03-27T19:52:29.460Z,11.97
2019-03-27T19:55:18.780Z,11.47
2019-03-27T19:58:07.343Z,11.73
2019-03-27T20:00:51.173Z,11.63
2019-03-27T20:03:40.069Z,11.47
2019-03-27T20:06:28.630Z,11.17
2019-03-27T20:09:16.917Z,11.20
2019-03-27T20:12:05.530Z,12.60
2019-03-27T20:14:53.930Z,11.90
2019-03-27T20:17:42.638Z,11.10
2019-03-27T20:20:31.488Z,11.40
2019-03-27T20:23:19.425Z,12.17
2019-03-27T20:26:08.141Z,12.63
2019-03-27T20:28:57.133Z,12.50
2019-03-27T20:31:45.913Z,11.97
2019-03-27T20:34:34.536Z,13.50
2019-03-27T20:37:23.230Z,12.83
2019-03-27T20:40:11.839Z,13.00
2019-03-27T20:43:00.753Z,13.20
2019-03-27T20:45:49.684Z,12.97
2019-03-27T20:48:38.390Z,13.47
2019-03-27T20:51:17.337Z,13.83
2019-03-27T20:54:06.060Z,13.97
2019-03-27T20:56:54.907Z,14.57
2019-03-27T20:59:43.598Z,13.80
2019-03-27T21:02:32.232Z,14.00
2019-03-27T21:05:01.798Z,14.23
2019-03-27T21:07:49.995Z,14.00
2019-03-27T21:10:38.763Z,13.43
2019-03-27T21:13:28.058Z,13.53
2019-03-27T21:16:16.437Z,14.30
2019-03-27T21:19:05.117Z,14.50
2019-03-27T21:21:53.716Z,14.07
2019-03-27T21:24:42.170Z,14.30
2019-03-27T21:27:30.794Z,15.80
2019-03-27T21:30:19.555Z,15.10
2019-03-27T21:33:08.682Z,15.33
2019-03-27T21:35:57.632Z,15.07
2019-03-27T21:38:46.085Z,15.13
2019-03-27T21:41:34.885Z,16.50
2019-03-27T21:44:23.934Z,16.10
2019-03-27T21:47:12.590Z,14.97
2019-03-27T21:50:00.918Z,14.63
2019-03-27T21:52:59.927Z,15.83
2019-03-27T21:55:42.915Z,16.53
2019-03-27T21:58:29.696Z,15.80
2019-03-27T22:01:18.180Z,17.03
2019-03-27T22:04:06.965Z,17.20
2019-03-27T22:06:55.519Z,16.60
2019-03-27T22:09:43.930Z,17.17
2019-03-27T22:12:32.789Z,16.57
2019-03-27T22:15:21.726Z,16.23
2019-03-27T22:18:10.064Z,15.73
2019-03-27T22:20:58.142Z,15.97
2019-03-27T22:23:46.757Z,15.90
2019-03-27T22:26:35.083Z,16.87
2019-03-27T22:29:23.740Z,16.90
2019-03-27T22:32:12.538Z,16.13
2019-03-27T22:35:01.381Z,17.00
2019-03-27T22:37:49.584Z,16.97
2019-03-27T22:40:37.878Z,15.97
2019-03-27T22:43:26.544Z,16.57
2019-03-27T22:46:14.922Z,15.93
2019-03-27T22:49:03.573Z,15.70
2019-03-27T22:51:52.080Z,15.80
2019-03-27T22:54:40.348Z,15.87
2019-03-27T22:57:28.902Z,16.67
2019-03-27T23:00:19.467Z,15.83
2019-03-27T23:03:17.667Z,16.00
2019-03-27T23:05:57.267Z,16.70
2019-03-27T23:08:45.962Z,16.83
2019-03-27T23:11:34.880Z,16.30
2019-03-27T23:14:23.055Z,16.07
2019-03-27T23:17:11.768Z,16.23
2019-03-27T23:19:59.967Z,16.43
2019-03-27T23:22:48.914Z,16.07
2019-03-27T23:25:37.559Z,17.37
2019-03-27T23:28:26.655Z,16.03
2019-03-27T23:31:15.354Z,16.80
2019-03-27T23:34:04.013Z,16.47
2019-03-27T23:36:52.570Z,16.73
2019-03-27T23:39:40.944Z,17.30
2019-03-27T23:42:25.856Z,16.97
2019-03-27T23:45:14.892Z,15.17
2019-03-27T23:48:03.667Z,16.17
2019-03-27T23:50:52.770Z,16.83
2019-03-27T23:53:40.849Z,16.63
2019-03-27T23:56:28.971Z,16.43
2019-03-27T23:59:18.059Z,17.30
